createdAt,value
2018-02-19T00:01:11.629Z,6.83
2018-02-19T00:03:39.899Z,7.47
2018-02-19T00:06:08.204Z,6.57
2018-02-19T00:08:37.235Z,6.77
2018-02-19T00:11:05.654Z,7.57
2018-02-19T00:13:33.920Z,8.13
2018-02-19T00:16:02.186Z,6.60
2018-02-19T00:18:30.461Z,6.97
2018-02-19T00:20:58.716Z,7.23
2018-02-19T00:23:27.012Z,7.60
2018-02-19T00:25:55.277Z,7.97
2018-02-19T00:28:23.536Z,6.90
2018-02-19T00:30:52.597Z,7.23
2018-02-19T00:33:20.851Z,8.57
2018-02-19T00:35:49.155Z,7.63
2018-02-19T00:38:17.424Z,7.43
2018-02-19T00:40:45.745Z,6.20
2018-02-19T00:43:14.760Z,6.30
2018-02-19T00:45:43.549Z,7.47
2018-02-19T00:48:11.820Z,6.87
2018-02-19T00:50:40.090Z,6.60
2018-02-19T00:53:09.128Z,7.03
2018-02-19T00:55:37.405Z,6.93
2018-02-19T00:58:05.785Z,6.10
2018-02-19T01:00:34.031Z,5.90
2018-02-19T01:03:02.292Z,6.03
2018-02-19T01:05:30.568Z,5.63
2018-02-19T01:07:58.894Z,7.50
2018-02-19T01:10:27.174Z,7.03
2018-02-19T01:12:55.437Z,6.40
2018-02-19T01:15:23.828Z,7.10
2018-02-19T01:17:52.088Z,6.13
2018-02-19T01:20:20.483Z,6.93
2018-02-19T01:22:48.728Z,6.30
2018-02-19T01:25:16.988Z,6.23
2018-02-19T01:27:45.266Z,7.47
2018-02-19T01:30:13.524Z,6.60
2018-02-19T01:32:42.689Z,6.53
2018-02-19T01:35:10.952Z,6.30
2018-02-19T01:37:39.243Z,6.37
2018-02-19T01:40:07.492Z,6.60
2018-02-19T01:42:35.798Z,7.07
2018-02-19T01:45:04.054Z,6.53
2018-02-19T01:47:32.319Z,7.40
2018-02-19T01:50:12.609Z,6.80
2018-02-19T01:52:40.902Z,6.83
2018-02-19T01:55:09.265Z,6.37
2018-02-19T01:57:37.514Z,5.73
2018-02-19T02:00:05.797Z,6.63
2018-02-19T02:02:34.199Z,7.00
2018-02-19T02:05:02.485Z,6.07
2018-02-19T02:07:30.855Z,6.30
2018-02-19T02:09:59.115Z,6.10
2018-02-19T02:12:27.410Z,5.97
2018-02-19T02:14:55.677Z,5.50
2018-02-19T02:17:23.938Z,5.80
2018-02-19T02:19:52.344Z,7.77
2018-02-19T02:22:20.621Z,6.00
2018-02-19T02:24:48.898Z,7.10
2018-02-19T02:27:17.277Z,6.70
2018-02-19T02:29:45.558Z,6.53
2018-02-19T02:32:13.843Z,6.17
2018-02-19T02:34:42.117Z,6.10
2018-02-19T02:37:10.406Z,7.07
2018-02-19T02:39:38.765Z,6.90
2018-02-19T02:42:07.739Z,6.23
2018-02-19T02:44:36.000Z,7.60
2018-02-19T02:47:04.257Z,6.07
2018-02-19T02:49:32.605Z,6.00
2018-02-19T02:52:00.867Z,6.77
2018-02-19T02:54:29.350Z,6.00
2018-02-19T02:56:57.604Z,6.03
2018-02-19T02:59:26.008Z,5.60
2018-02-19T03:01:54.260Z,6.70
2018-02-19T03:04:22.674Z,7.27
2018-02-19T03:06:50.940Z,5.80
2018-02-19T03:09:19.223Z,7.13
2018-02-19T03:11:47.481Z,6.27
2018-02-19T03:14:15.750Z,7.30
2018-02-19T03:16:44.026Z,5.93
2018-02-19T03:19:12.306Z,7.10
2018-02-19T03:21:40.764Z,7.47
2018-02-19T03:24:09.019Z,5.80
2018-02-19T03:26:37.296Z,6.90
2018-02-19T03:29:05.558Z,7.00
2018-02-19T03:31:33.874Z,7.07
2018-02-19T03:34:02.150Z,7.33
2018-02-19T03:36:30.497Z,6.97
2018-02-19T03:38:58.776Z,6.13
2018-02-19T03:41:27.039Z,5.80
2018-02-19T03:43:55.340Z,6.70
2018-02-19T03:46:23.596Z,6.77
2018-02-19T03:48:51.878Z,6.33
2018-02-19T03:51:20.137Z,6.60
2018-02-19T03:53:49.180Z,6.37
2018-02-19T03:56:17.442Z,5.10
2018-02-19T03:58:45.724Z,5.70
2018-02-19T04:01:14.029Z,6.40
2018-02-19T04:03:42.327Z,6.57
2018-02-19T04:06:11.353Z,5.87
2018-02-19T04:08:39.620Z,6.80
2018-02-19T04:11:07.956Z,6.83
2018-02-19T04:13:36.992Z,6.60
2018-02-19T04:16:05.280Z,11.10
2018-02-19T04:18:33.588Z,8.10
2018-02-19T04:21:01.973Z,6.50
2018-02-19T04:23:30.229Z,7.27
2018-02-19T04:25:58.496Z,7.17
2018-02-19T04:28:26.775Z,6.87
2018-02-19T04:30:55.051Z,7.17
2018-02-19T04:33:23.328Z,7.97
2018-02-19T04:35:51.618Z,6.90
2018-02-19T04:38:19.907Z,8.40
2018-02-19T04:40:48.156Z,7.07
2018-02-19T04:43:16.564Z,6.63
2018-02-19T04:45:48.260Z,6.73
2018-02-19T04:48:17.341Z,7.13
2018-02-19T04:50:45.696Z,7.23
2018-02-19T04:53:13.969Z,7.17
2018-02-19T04:55:42.301Z,7.50
2018-02-19T04:58:10.625Z,7.30
2018-02-19T05:00:38.914Z,7.93
2018-02-19T05:03:07.257Z,8.40
2018-02-19T05:05:35.586Z,6.87
2018-02-19T05:08:03.896Z,8.57
2018-02-19T05:10:32.204Z,8.80
2018-02-19T05:13:00.496Z,8.90
2018-02-19T05:15:29.524Z,8.17
2018-02-19T05:17:57.889Z,8.23
2018-02-19T05:20:27.850Z,8.37
2018-02-19T05:22:56.210Z,6.73
2018-02-19T05:25:24.428Z,8.63
2018-02-19T05:27:53.467Z,9.37
2018-02-19T05:30:22.376Z,10.07
2018-02-19T05:32:50.666Z,8.63
2018-02-19T05:35:18.952Z,10.17
2018-02-19T05:37:47.243Z,8.50
2018-02-19T05:40:15.617Z,8.00
2018-02-19T05:42:43.900Z,9.73
2018-02-19T05:45:12.272Z,8.07
2018-02-19T05:47:40.657Z,9.23
2018-02-19T05:50:08.940Z,8.73
2018-02-19T05:52:37.981Z,9.83
2018-02-19T05:55:06.295Z,8.30
2018-02-19T05:57:34.589Z,10.23
2018-02-19T06:00:03.713Z,9.03
2018-02-19T06:02:32.012Z,9.50
2018-02-19T06:05:00.316Z,10.30
2018-02-19T06:07:28.699Z,10.37
2018-02-19T06:09:56.980Z,10.50
2018-02-19T06:12:25.269Z,9.67
2018-02-19T06:14:54.333Z,11.20
2018-02-19T06:17:22.615Z,11.00
2018-02-19T06:19:50.901Z,9.03
2018-02-19T06:22:19.211Z,10.00
2018-02-19T06:24:47.502Z,8.90
2018-02-19T06:27:15.898Z,9.90
2018-02-19T06:29:44.240Z,10.07
2018-02-19T06:32:12.597Z,11.07
2018-02-19T06:34:40.861Z,11.90
2018-02-19T06:37:09.149Z,11.33
2018-02-19T06:39:37.531Z,11.43
2018-02-19T06:42:05.954Z,12.40
2018-02-19T06:44:34.204Z,9.63
2018-02-19T06:47:02.576Z,10.00
2018-02-19T06:49:30.864Z,11.40
2018-02-19T06:51:59.945Z,11.10
2018-02-19T06:54:28.236Z,10.57
2018-02-19T06:56:57.272Z,10.97
2018-02-19T06:59:25.564Z,10.20
2018-02-19T07:01:53.850Z,10.00
2018-02-19T07:04:22.128Z,9.93
2018-02-19T07:06:50.416Z,10.73
2018-02-19T07:09:18.682Z,10.70
2018-02-19T07:11:46.979Z,11.00
2018-02-19T07:14:15.245Z,11.53
2018-02-19T07:16:43.570Z,11.20
2018-02-19T07:19:12.771Z,11.83
2018-02-19T07:21:41.012Z,10.37
2018-02-19T07:24:09.284Z,10.30
2018-02-19T07:26:37.607Z,12.90
2018-02-19T07:29:05.856Z,11.80
2018-02-19T07:31:34.214Z,11.70
2018-02-19T07:34:02.507Z,12.43
2018-02-19T07:36:30.777Z,12.47
2018-02-19T07:38:59.148Z,10.97
2018-02-19T07:41:27.448Z,12.27
2018-02-19T07:43:56.485Z,10.30
2018-02-19T07:46:24.772Z,12.50
2018-02-19T07:48:53.038Z,12.43
2018-02-19T07:51:21.325Z,11.97
2018-02-19T07:53:49.592Z,11.70
2018-02-19T07:56:17.908Z,11.80
2018-02-19T07:58:46.208Z,11.43
2018-02-19T08:01:14.571Z,12.20
2018-02-19T08:03:42.864Z,12.27
2018-02-19T08:06:11.941Z,12.33
2018-02-19T08:08:40.229Z,12.63
2018-02-19T08:11:08.505Z,19.70
2018-02-19T08:13:36.803Z,11.40
2018-02-19T08:16:05.836Z,14.53
2018-02-19T08:18:34.149Z,10.13
2018-02-19T08:21:02.534Z,10.87
2018-02-19T08:23:30.794Z,12.47
2018-02-19T08:25:59.085Z,11.53
2018-02-19T08:28:27.355Z,12.27
2018-02-19T08:30:55.643Z,12.93
2018-02-19T08:33:23.909Z,17.07
2018-02-19T08:35:52.194Z,11.47
2018-02-19T08:38:20.467Z,12.47
2018-02-19T08:40:48.764Z,11.20
2018-02-19T08:43:17.800Z,9.87
2018-02-19T08:45:46.116Z,11.70
2018-02-19T08:48:14.393Z,11.10
2018-02-19T08:50:42.664Z,11.67
2018-02-19T08:53:11.155Z,11.10
2018-02-19T08:55:39.424Z,11.73
2018-02-19T08:58:07.807Z,12.03
2018-02-19T09:00:36.093Z,10.70
2018-02-19T09:03:04.396Z,10.80
2018-02-19T09:05:33.611Z,10.80
2018-02-19T09:08:01.837Z,11.80
2018-02-19T09:10:30.155Z,11.20
2018-02-19T09:12:58.436Z,12.53
2018-02-19T09:15:27.609Z,12.03
2018-02-19T09:17:56.636Z,11.90
2018-02-19T09:20:25.063Z,11.20
2018-02-19T09:22:53.323Z,10.67
2018-02-19T09:25:21.622Z,10.13
2018-02-19T09:27:49.894Z,13.07
2018-02-19T09:30:18.278Z,11.97
2018-02-19T09:32:46.562Z,12.73
2018-02-19T09:35:14.835Z,12.17
2018-02-19T09:37:44.030Z,12.27
2018-02-19T09:40:12.314Z,11.43
2018-02-19T09:42:40.682Z,13.10
2018-02-19T09:45:08.964Z,12.33
2018-02-19T09:47:37.282Z,11.50
2018-02-19T09:50:05.569Z,12.13
2018-02-19T09:52:33.838Z,18.87
2018-02-19T09:55:02.128Z,13.20
2018-02-19T09:57:30.445Z,12.07
2018-02-19T09:59:58.743Z,12.37
2018-02-19T10:02:27.022Z,12.50
2018-02-19T10:04:56.079Z,11.00
2018-02-19T10:07:24.375Z,12.30
2018-02-19T10:09:52.688Z,11.47
2018-02-19T10:12:21.749Z,12.57
2018-02-19T10:14:50.058Z,12.60
2018-02-19T10:17:19.094Z,11.70
2018-02-19T10:19:47.357Z,12.40
2018-02-19T10:22:15.637Z,11.87
2018-02-19T10:24:44.057Z,14.07
2018-02-19T10:27:12.436Z,12.43
2018-02-19T10:29:40.706Z,11.80
2018-02-19T10:32:09.770Z,12.77
2018-02-19T10:34:38.082Z,13.73
2018-02-19T10:37:06.389Z,13.07
2018-02-19T10:39:35.481Z,13.87
2018-02-19T10:42:03.750Z,14.63
2018-02-19T10:44:32.043Z,13.30
2018-02-19T10:47:00.289Z,14.73
2018-02-19T10:49:30.328Z,14.30
2018-02-19T10:51:58.620Z,14.20
2018-02-19T10:54:27.676Z,14.27
2018-02-19T10:56:55.942Z,13.83
2018-02-19T10:59:24.229Z,12.57
2018-02-19T11:01:52.491Z,14.63
2018-02-19T11:04:20.799Z,14.20
2018-02-19T11:06:49.189Z,12.27
2018-02-19T11:09:17.655Z,12.60
2018-02-19T11:11:46.724Z,12.73
2018-02-19T11:14:14.997Z,13.40
2018-02-19T11:16:43.292Z,12.07
2018-02-19T11:19:11.555Z,13.80
2018-02-19T11:21:39.864Z,11.90
2018-02-19T11:24:08.152Z,13.17
2018-02-19T11:26:36.433Z,14.00
2018-02-19T11:29:04.715Z,11.87
2018-02-19T11:31:32.992Z,13.10
2018-02-19T11:34:02.065Z,13.73
2018-02-19T11:36:30.359Z,11.10
2018-02-19T11:38:58.733Z,11.03
2018-02-19T11:41:27.806Z,12.10
2018-02-19T11:43:56.091Z,11.63
2018-02-19T11:46:24.379Z,11.50
2018-02-19T11:48:53.426Z,12.10
2018-02-19T11:51:21.708Z,13.87
2018-02-19T11:53:49.990Z,15.70
2018-02-19T11:56:18.364Z,11.90
2018-02-19T11:58:46.642Z,11.47
2018-02-19T12:01:14.907Z,11.67
2018-02-19T12:03:43.208Z,10.80
2018-02-19T12:06:11.497Z,11.40
2018-02-19T12:08:41.279Z,11.33
2018-02-19T12:11:09.568Z,9.97
2018-02-19T12:13:37.846Z,11.30
2018-02-19T12:16:06.117Z,11.37
2018-02-19T12:18:34.386Z,12.63
2018-02-19T12:21:02.691Z,12.67
2018-02-19T12:23:30.952Z,12.00
2018-02-19T12:25:59.242Z,11.60
2018-02-19T12:28:28.344Z,10.60
2018-02-19T12:30:57.421Z,11.33
2018-02-19T12:33:25.803Z,11.93
2018-02-19T12:35:54.268Z,11.43
2018-02-19T12:38:23.512Z,12.20
2018-02-19T12:40:52.606Z,11.40
2018-02-19T12:43:20.882Z,11.27
2018-02-19T12:45:49.137Z,11.90
2018-02-19T12:48:17.435Z,12.73
2018-02-19T12:50:46.480Z,12.40
2018-02-19T12:53:14.787Z,12.93
2018-02-19T12:55:43.575Z,11.00
2018-02-19T12:58:11.930Z,12.37
2018-02-19T13:00:40.230Z,10.77
2018-02-19T13:03:08.481Z,12.00
2018-02-19T13:05:36.989Z,12.77
2018-02-19T13:08:05.245Z,12.60
2018-02-19T13:10:33.553Z,10.20
2018-02-19T13:13:01.923Z,10.30
2018-02-19T13:15:30.181Z,11.13
2018-02-19T13:17:58.579Z,10.57
2018-02-19T13:20:26.840Z,10.20
2018-02-19T13:22:55.133Z,11.40
2018-02-19T13:25:23.513Z,11.87
2018-02-19T13:27:51.789Z,11.37
2018-02-19T13:30:20.053Z,11.10
2018-02-19T13:32:48.344Z,10.20
2018-02-19T13:35:16.621Z,16.60
2018-02-19T13:37:44.896Z,13.40
2018-02-19T13:40:13.380Z,16.50
2018-02-19T13:42:41.656Z,10.77
2018-02-19T13:45:09.933Z,10.20
2018-02-19T13:47:38.191Z,10.37
2018-02-19T13:50:06.495Z,10.73
2018-02-19T13:52:34.756Z,12.63
2018-02-19T13:55:03.054Z,9.77
2018-02-19T13:57:32.851Z,10.80
2018-02-19T14:00:01.130Z,10.27
2018-02-19T14:02:29.412Z,10.80
2018-02-19T14:04:57.686Z,10.90
2018-02-19T14:07:26.169Z,10.00
2018-02-19T14:09:54.425Z,10.50
2018-02-19T14:12:22.730Z,7.33
2018-02-19T14:14:51.102Z,8.77
2018-02-19T14:17:19.348Z,10.23
2018-02-19T14:19:47.633Z,12.30
2018-02-19T14:22:15.904Z,10.27
2018-02-19T14:24:44.188Z,10.73
2018-02-19T14:27:12.533Z,10.40
2018-02-19T14:29:41.587Z,11.00
2018-02-19T14:32:09.840Z,10.07
2018-02-19T14:34:38.253Z,11.03
2018-02-19T14:37:07.280Z,10.37
2018-02-19T14:39:35.616Z,10.17
2018-02-19T14:42:03.898Z,11.03
2018-02-19T14:44:32.159Z,9.50
2018-02-19T14:47:00.456Z,10.23
2018-02-19T14:49:29.646Z,10.47
2018-02-19T14:51:57.922Z,11.67
2018-02-19T14:54:26.180Z,8.87
2018-02-19T14:56:54.464Z,9.20
2018-02-19T14:59:22.729Z,10.17
2018-02-19T15:01:50.984Z,9.23
2018-02-19T15:04:19.282Z,8.87
2018-02-19T15:06:47.539Z,11.20
2018-02-19T15:09:15.829Z,10.23
2018-02-19T15:11:44.107Z,12.47
2018-02-19T15:14:12.424Z,13.10
2018-02-19T15:16:41.613Z,10.20
2018-02-19T15:19:09.911Z,10.30
2018-02-19T15:21:38.205Z,9.30
2018-02-19T15:24:07.226Z,9.80
2018-02-19T15:26:35.542Z,10.90
2018-02-19T15:29:03.825Z,10.03
2018-02-19T15:31:32.888Z,10.50
2018-02-19T15:34:01.153Z,9.83
2018-02-19T15:36:29.468Z,11.00
2018-02-19T15:38:57.760Z,10.10
2018-02-19T15:41:26.024Z,11.00
2018-02-19T15:43:54.506Z,10.67
2018-02-19T15:46:22.890Z,10.50
2018-02-19T15:48:51.265Z,11.70
2018-02-19T15:51:19.516Z,17.40
2018-02-19T15:53:48.126Z,14.50
2018-02-19T15:56:17.193Z,11.10
2018-02-19T15:58:45.462Z,11.40
2018-02-19T16:01:14.344Z,9.80
2018-02-19T16:03:42.607Z,11.53
2018-02-19T16:06:11.664Z,10.43
2018-02-19T16:08:39.938Z,11.00
2018-02-19T16:11:08.237Z,10.63
2018-02-19T16:13:37.261Z,8.73
2018-02-19T16:16:05.592Z,10.10
2018-02-19T16:18:33.884Z,9.80
2018-02-19T16:21:02.245Z,10.80
2018-02-19T16:23:30.531Z,9.43
2018-02-19T16:25:58.821Z,10.70
2018-02-19T16:28:27.896Z,9.67
2018-02-19T16:30:56.275Z,9.57
2018-02-19T16:33:24.553Z,8.67
2018-02-19T16:35:52.824Z,9.87
2018-02-19T16:38:21.209Z,10.27
2018-02-19T16:40:49.497Z,9.13
2018-02-19T16:43:17.972Z,9.93
2018-02-19T16:45:46.241Z,9.50
2018-02-19T16:48:14.516Z,10.73
2018-02-19T16:50:42.800Z,10.80
2018-02-19T16:53:11.073Z,10.50
2018-02-19T16:55:39.369Z,9.97
2018-02-19T16:58:07.643Z,10.90
2018-02-19T17:00:35.957Z,10.77
2018-02-19T17:03:04.296Z,11.70
2018-02-19T17:05:34.101Z,11.93
2018-02-19T17:08:02.400Z,11.07
2018-02-19T17:10:31.424Z,11.67
2018-02-19T17:12:59.757Z,12.17
2018-02-19T17:15:28.030Z,11.77
2018-02-19T17:17:56.340Z,11.87
2018-02-19T17:20:25.363Z,12.03
2018-02-19T17:22:53.648Z,11.33
2018-02-19T17:25:21.965Z,12.43
2018-02-19T17:27:50.224Z,13.43
2018-02-19T17:30:18.614Z,12.20
2018-02-19T17:32:46.896Z,11.50
2018-02-19T17:35:15.600Z,14.00
2018-02-19T17:37:44.644Z,12.60
2018-02-19T17:40:13.048Z,11.60
2018-02-19T17:42:41.329Z,11.40
2018-02-19T17:45:09.592Z,13.70
2018-02-19T17:47:37.983Z,12.67
2018-02-19T17:50:06.237Z,11.97
2018-02-19T17:52:34.639Z,13.87
2018-02-19T17:55:02.952Z,13.47
2018-02-19T17:57:32.027Z,13.20
2018-02-19T18:00:00.300Z,13.10
2018-02-19T18:02:28.600Z,13.33
2018-02-19T18:04:57.766Z,12.10
2018-02-19T18:07:26.045Z,13.43
2018-02-19T18:09:54.341Z,12.03
2018-02-19T18:12:22.700Z,13.20
2018-02-19T18:14:50.983Z,14.00
2018-02-19T18:17:19.254Z,14.23
2018-02-19T18:19:47.721Z,13.83
2018-02-19T18:22:16.013Z,15.13
2018-02-19T18:24:44.327Z,15.50
2018-02-19T18:27:13.381Z,13.30
2018-02-19T18:29:41.652Z,13.53
2018-02-19T18:32:09.932Z,14.30
2018-02-19T18:34:38.234Z,13.80
2018-02-19T18:37:06.640Z,13.40
2018-02-19T18:39:35.664Z,14.10
2018-02-19T18:42:03.996Z,14.80
2018-02-19T18:44:33.080Z,15.10
2018-02-19T18:47:01.373Z,13.87
2018-02-19T18:49:30.409Z,15.40
2018-02-19T18:51:58.698Z,13.60
2018-02-19T18:54:26.973Z,14.23
2018-02-19T18:56:55.300Z,13.47
2018-02-19T18:59:24.324Z,15.17
2018-02-19T19:01:52.594Z,14.77
2018-02-19T19:04:20.946Z,15.77
2018-02-19T19:06:49.275Z,14.93
2018-02-19T19:09:29.598Z,17.70
2018-02-19T19:11:58.653Z,15.57
2018-02-19T19:14:26.948Z,14.53
2018-02-19T19:16:55.229Z,16.23
2018-02-19T19:19:23.524Z,16.07
2018-02-19T19:21:52.560Z,14.07
2018-02-19T19:24:20.846Z,13.40
2018-02-19T19:26:49.200Z,13.87
2018-02-19T19:29:18.204Z,14.27
2018-02-19T19:31:46.513Z,14.50
2018-02-19T19:34:14.771Z,15.00
2018-02-19T19:36:43.069Z,14.37
2018-02-19T19:39:11.444Z,15.33
2018-02-19T19:41:39.736Z,15.40
2018-02-19T19:44:08.013Z,15.07
2018-02-19T19:46:36.376Z,14.03
2018-02-19T19:49:04.678Z,16.40
2018-02-19T19:51:33.862Z,15.67
2018-02-19T19:54:02.201Z,16.63
2018-02-19T19:56:30.472Z,16.37
2018-02-19T19:58:58.777Z,15.33
2018-02-19T20:01:27.062Z,17.27
2018-02-19T20:03:55.342Z,15.97
2018-02-19T20:06:23.628Z,17.30
2018-02-19T20:08:51.896Z,15.47
2018-02-19T20:11:20.288Z,16.53
2018-02-19T20:13:48.570Z,16.10
2018-02-19T20:16:16.844Z,14.70
2018-02-19T20:18:45.115Z,16.10
2018-02-19T20:21:13.420Z,17.37
2018-02-19T20:23:42.583Z,16.00
2018-02-19T20:26:10.882Z,23.67
2018-02-19T20:28:39.940Z,20.70
2018-02-19T20:31:08.232Z,17.07
2018-02-19T20:33:36.542Z,16.17
2018-02-19T20:36:05.576Z,16.67
2018-02-19T20:38:34.035Z,16.37
2018-02-19T20:41:03.083Z,14.97
2018-02-19T20:43:31.365Z,15.50
2018-02-19T20:46:00.459Z,14.87
2018-02-19T20:48:28.712Z,16.10
2018-02-19T20:50:57.018Z,15.37
2018-02-19T20:53:25.292Z,15.90
2018-02-19T20:55:53.683Z,16.37
2018-02-19T20:58:21.972Z,17.40
2018-02-19T21:00:51.016Z,17.00
2018-02-19T21:03:19.320Z,16.70
2018-02-19T21:05:47.598Z,16.53
2018-02-19T21:08:15.982Z,15.80
2018-02-19T21:10:44.357Z,15.53
2018-02-19T21:13:12.731Z,15.40
2018-02-19T21:15:41.111Z,15.07
2018-02-19T21:18:09.376Z,15.17
2018-02-19T21:20:37.714Z,16.07
2018-02-19T21:23:05.983Z,15.27
2018-02-19T21:25:35.016Z,16.10
2018-02-19T21:28:03.521Z,17.67
2018-02-19T21:30:31.787Z,15.97
2018-02-19T21:33:00.120Z,17.27
2018-02-19T21:35:28.408Z,14.93
2018-02-19T21:37:56.688Z,16.43
2018-02-19T21:40:24.972Z,16.73
2018-02-19T21:42:53.236Z,16.33
2018-02-19T21:45:21.521Z,16.90
2018-02-19T21:47:49.805Z,16.50
2018-02-19T21:50:18.076Z,15.47
2018-02-19T21:52:46.403Z,16.63
2018-02-19T21:55:14.752Z,17.87
2018-02-19T21:57:43.049Z,18.87
2018-02-19T22:00:11.428Z,18.67
2018-02-19T22:02:39.741Z,17.03
2018-02-19T22:05:08.802Z,17.63
2018-02-19T22:07:37.060Z,17.17
2018-02-19T22:10:05.351Z,16.20
2018-02-19T22:12:33.652Z,17.37
2018-02-19T22:15:01.965Z,16.47
2018-02-19T22:17:30.291Z,17.50
2018-02-19T22:19:58.671Z,17.63
2018-02-19T22:22:27.151Z,16.20
2018-02-19T22:24:55.426Z,16.80
2018-02-19T22:27:23.729Z,18.57
2018-02-19T22:29:52.771Z,18.17
2018-02-19T22:32:21.063Z,16.60
2018-02-19T22:34:49.344Z,16.40
2018-02-19T22:37:17.616Z,17.37
2018-02-19T22:39:45.891Z,16.50
2018-02-19T22:42:14.169Z,15.10
2018-02-19T22:44:42.483Z,17.50
2018-02-19T22:47:12.262Z,15.70
2018-02-19T22:49:40.582Z,15.97
2018-02-19T22:52:09.652Z,16.30
2018-02-19T22:54:37.925Z,15.97
2018-02-19T22:57:06.306Z,16.60
2018-02-19T22:59:34.586Z,17.60
2018-02-19T23:02:02.961Z,17.20
2018-02-19T23:04:31.258Z,15.83
2018-02-19T23:06:59.530Z,16.80
2018-02-19T23:09:27.824Z,16.30
2018-02-19T23:11:56.900Z,17.30
2018-02-19T23:14:25.194Z,15.17
2018-02-19T23:16:54.253Z,16.63
2018-02-19T23:19:22.644Z,17.73
2018-02-19T23:21:51.140Z,19.90
2018-02-19T23:24:19.420Z,20.53
2018-02-19T23:26:48.601Z,16.50
2018-02-19T23:29:16.980Z,18.57
2018-02-19T23:31:45.248Z,18.50
2018-02-19T23:34:13.564Z,15.40
2018-02-19T23:36:42.645Z,17.03
2018-02-19T23:39:10.945Z,15.57
2018-02-19T23:41:40.033Z,17.17
2018-02-19T23:44:09.084Z,16.83
2018-02-19T23:46:37.389Z,16.80
2018-02-19T23:49:05.777Z,18.87
2018-02-19T23:51:34.179Z,18.50
2018-02-19T23:54:03.335Z,16.60
2018-02-19T23:56:31.612Z,17.20
2018-02-19T23:58:59.890Z,16.77
